American Islander — WDC5089 — position and weather

sailwx.info

Track history (hours):
 
Tides and Currents Weather Stations Pressure Air Temp Water Temp Dewpoint Dewpoint Depression Visibility Wind Speed Wind Dir Waves Ship Positions

American Islander

Owner: AMERICAN WORKBOATS, INC., HONOLULU, HI. More information available from US FCC via Universal Licensing System and Coast Guard Vessel Documentation Center.

Last reported at 2016-Jul-17 08:29 UTC. Time now 2016-Jul-25 00:18 UTC.
Position N 33°44' W 118°16'.

Length 31 m; draft 3 m.

Type: Ship. MMSI: 367035570.

Date/timePositionNaut miles runAvg speedWind from/ knotsBaromVisibWave heightAir tempDewpointWater temp
2016-Jul-17 08:29N 33°44' W 118°16'1 0.9
2016-Jul-17 07:19N 33°43' W 118°16'6 8.0
2016-Jul-17 06:33N 33°41' W 118°09'10 4.7
2016-Jul-17 04:31N 33°38' W 117°58'0 0.1
2016-Jul-17 03:32N 33°38' W 117°58'6 5.7
2016-Jul-17 02:30N 33°39' W 118°05'8 8.6
2016-Jul-17 01:33N 33°42' W 118°14'2 2.4
2016-Jul-17 00:33N 33°44' W 118°16'0 0.0
2016-Jul-16 23:33N 33°44' W 118°16'0 0.0
2016-Jul-16 22:31N 33°44' W 118°16'0 0.0
2016-Jul-16 21:28N 33°44' W 118°16'0 0.0
2016-Jul-16 20:32N 33°44' W 118°16'0 0.0
2016-Jul-16 19:28N 33°44' W 118°16'0 0.0
2016-Jul-16 18:33N 33°44' W 118°16'0 0.0
2016-Jul-16 17:32N 33°44' W 118°16'0 0.0
2016-Jul-16 13:31N 33°44' W 118°16'0 0.0
2016-Jul-16 12:27N 33°44' W 118°16'0 0.0
2016-Jul-16 11:33N 33°44' W 118°16'0 0.0
2016-Jul-16 10:33N 33°44' W 118°16'0 0.0
2016-Jul-16 09:31N 33°44' W 118°16'0 0.0
2016-Jul-16 08:23N 33°44' W 118°16'0 0.0
2016-Jul-16 07:34N 33°44' W 118°16'0 0.0
2016-Jul-16 06:18N 33°44' W 118°16'0 0.0
2016-Jul-16 04:34N 33°44' W 118°16'0 0.0
2016-Jul-16 03:33N 33°44' W 118°16'0 0.0
2016-Jul-16 02:33N 33°44' W 118°16'0 0.0
2016-Jul-16 01:34N 33°44' W 118°16'0 0.0
2016-Jul-16 00:33N 33°44' W 118°16'0 0.0
2016-Jul-15 23:33N 33°44' W 118°16'0 0.0
2016-Jul-15 22:33N 33°44' W 118°16'0 0.0
2016-Jul-15 21:33N 33°44' W 118°16'0 0.0
2016-Jul-15 20:33N 33°44' W 118°16'0 0.0
2016-Jul-15 19:33N 33°44' W 118°16'0 0.0
2016-Jul-15 18:33N 33°44' W 118°16'0 0.0
2016-Jul-15 17:33N 33°44' W 118°16'0 0.0
2016-Jul-15 16:34N 33°44' W 118°16'0 0.0
2016-Jul-15 15:31N 33°44' W 118°16'0 0.0
2016-Jul-15 14:33N 33°44' W 118°16'0 0.0
2016-Jul-15 13:24N 33°44' W 118°16'0 0.0
2016-Jul-15 12:33N 33°44' W 118°16'0 0.0
2016-Jul-15 11:33N 33°44' W 118°16'0 0.0
2016-Jul-15 10:34N 33°44' W 118°16'0 0.0
2016-Jul-15 09:30N 33°44' W 118°16'0 0.0
2016-Jul-15 08:27N 33°44' W 118°16'0 0.0
2016-Jul-15 07:07N 33°44' W 118°16'0 0.0
2016-Jul-15 06:16N 33°44' W 118°16'0 0.0
2016-Jul-15 05:33N 33°44' W 118°16'0 0.0
2016-Jul-15 04:34N 33°44' W 118°16'0 0.0
2016-Jul-15 03:33N 33°44' W 118°16'0 0.0
2016-Jul-15 02:33N 33°44' W 118°16'0 0.0
2016-Jul-15 01:33N 33°44' W 118°16'0 0.0
2016-Jul-15 00:34N 33°44' W 118°16'0 0.0
2016-Jul-14 23:34N 33°44' W 118°16'0 0.0
2016-Jul-14 22:33N 33°44' W 118°16'0 0.0
2016-Jul-14 21:34N 33°44' W 118°16'0 0.0
2016-Jul-14 20:34N 33°44' W 118°16'0 0.0
2016-Jul-14 19:32N 33°44' W 118°16'0 0.0
2016-Jul-14 18:33N 33°44' W 118°16'0 0.0
2016-Jul-14 16:31N 33°44' W 118°16'0 0.0
2016-Jul-14 15:33N 33°44' W 118°16'0 0.0
2016-Jul-14 13:30N 33°44' W 118°16'0 0.0
2016-Jul-14 12:29N 33°44' W 118°16'0 0.0
2016-Jul-14 07:13N 33°44' W 118°16'0 0.0
2016-Jul-14 06:03N 33°44' W 118°16'0 0.0
2016-Jul-14 03:26N 33°44' W 118°16'0 0.0
2016-Jul-14 02:24N 33°44' W 118°16'0 0.0
2016-Jul-14 01:33N 33°44' W 118°16'0 0.0
2016-Jul-14 00:33N 33°44' W 118°16'0 0.0
2016-Jul-13 23:33N 33°44' W 118°16'0 0.0
2016-Jul-13 20:22N 33°44' W 118°16'0 0.0
2016-Jul-13 19:29N 33°44' W 118°16'0 0.0
2016-Jul-13 10:11N 33°44' W 118°16'0 0.0
2016-Jul-12 03:30N 33°44' W 118°16'0 0.0
2016-Jul-12 01:33N 33°44' W 118°16'0 0.0
2016-Jul-12 00:33N 33°44' W 118°16'0 0.0
2016-Jul-11 23:33N 33°44' W 118°16'0 0.0
2016-Jul-11 22:32N 33°44' W 118°16'0 0.0
2016-Jul-11 21:15N 33°44' W 118°16'0 0.0
2016-Jul-10 16:18N 33°44' W 118°16'0 0.0
2016-Jul-10 15:33N 33°44' W 118°16'0 0.0
2016-Jul-10 14:33N 33°44' W 118°16'0 0.0
2016-Jul-10 13:33N 33°44' W 118°16'0 0.0
2016-Jul-10 12:33N 33°44' W 118°16'0 0.0
2016-Jul-10 11:33N 33°44' W 118°16'0 0.0
2016-Jul-10 10:33N 33°44' W 118°16'0 0.0
2016-Jul-10 09:32N 33°44' W 118°16'0 0.0
2016-Jul-10 08:23N 33°44' W 118°16'0 0.0
2016-Jul-10 07:32N 33°44' W 118°16'0 0.0
2016-Jul-10 06:33N 33°44' W 118°16'0 0.0
2016-Jul-10 05:33N 33°44' W 118°16'0 0.0
2016-Jul-10 04:33N 33°44' W 118°16'0 0.0
2016-Jul-10 03:33N 33°44' W 118°16'0 0.0
2016-Jul-10 02:33N 33°44' W 118°16'0 0.0
2016-Jul-10 01:32N 33°44' W 118°16'0 0.0
2016-Jul-10 00:25N 33°44' W 118°16'0 0.0
2016-Jul-09 23:33N 33°44' W 118°16'0 0.0
2016-Jul-09 22:33N 33°44' W 118°16'0 0.0
2016-Jul-09 20:18N 33°44' W 118°16'0 0.0
2016-Jul-09 19:28N 33°44' W 118°16'0 0.0
2016-Jul-09 07:25N 33°44' W 118°16'0 0.0
2016-Jul-09 04:33N 33°44' W 118°16'0 0.0
2016-Jul-09 03:30N 33°44' W 118°16'0 0.0
2016-Jul-09 02:25N 33°44' W 118°16'0 0.0
2016-Jul-09 01:31N 33°44' W 118°16'0 0.0
2016-Jul-08 23:26N 33°44' W 118°16'0 0.0
2016-Jul-08 22:29N 33°44' W 118°16'0 0.0
2016-Jul-08 21:33N 33°44' W 118°16'0 0.0
2016-Jul-08 15:12N 33°44' W 118°16'  
Track history (hours):
 
Tides and Currents Weather Stations Pressure Air Temp Water Temp Dewpoint Dewpoint Depression Visibility Wind Speed Wind Dir Waves Ship Positions

American Islander

Owner: AMERICAN WORKBOATS, INC., HONOLULU, HI. More information available from US FCC via Universal Licensing System and Coast Guard Vessel Documentation Center.

Last reported at 2016-Jul-17 08:29 UTC. Time now 2016-Jul-25 00:18 UTC.
Position N 33°44' W 118°16'.

Length 31 m; draft 3 m.

Type: Ship. MMSI: 367035570.

Date/timePositionNaut miles runAvg speedWind from/ knotsBaromVisibWave heightAir tempDewpointWater temp
2016-Jul-17 08:29N 33°44' W 118°16'1 0.9
2016-Jul-17 07:19N 33°43' W 118°16'6 8.0
2016-Jul-17 06:33N 33°41' W 118°09'10 4.7
2016-Jul-17 04:31N 33°38' W 117°58'0 0.1
2016-Jul-17 03:32N 33°38' W 117°58'6 5.7
2016-Jul-17 02:30N 33°39' W 118°05'8 8.6
2016-Jul-17 01:33N 33°42' W 118°14'2 2.4
2016-Jul-17 00:33N 33°44' W 118°16'0 0.0
2016-Jul-16 23:33N 33°44' W 118°16'0 0.0
2016-Jul-16 22:31N 33°44' W 118°16'0 0.0
2016-Jul-16 21:28N 33°44' W 118°16'0 0.0
2016-Jul-16 20:32N 33°44' W 118°16'0 0.0
2016-Jul-16 19:28N 33°44' W 118°16'0 0.0
2016-Jul-16 18:33N 33°44' W 118°16'0 0.0
2016-Jul-16 17:32N 33°44' W 118°16'0 0.0
2016-Jul-16 13:31N 33°44' W 118°16'0 0.0
2016-Jul-16 12:27N 33°44' W 118°16'0 0.0
2016-Jul-16 11:33N 33°44' W 118°16'0 0.0
2016-Jul-16 10:33N 33°44' W 118°16'0 0.0
2016-Jul-16 09:31N 33°44' W 118°16'0 0.0
2016-Jul-16 08:23N 33°44' W 118°16'0 0.0
2016-Jul-16 07:34N 33°44' W 118°16'0 0.0
2016-Jul-16 06:18N 33°44' W 118°16'0 0.0
2016-Jul-16 04:34N 33°44' W 118°16'0 0.0
2016-Jul-16 03:33N 33°44' W 118°16'0 0.0
2016-Jul-16 02:33N 33°44' W 118°16'0 0.0
2016-Jul-16 01:34N 33°44' W 118°16'0 0.0
2016-Jul-16 00:33N 33°44' W 118°16'0 0.0
2016-Jul-15 23:33N 33°44' W 118°16'0 0.0
2016-Jul-15 22:33N 33°44' W 118°16'0 0.0
2016-Jul-15 21:33N 33°44' W 118°16'0 0.0
2016-Jul-15 20:33N 33°44' W 118°16'0 0.0
2016-Jul-15 19:33N 33°44' W 118°16'0 0.0
2016-Jul-15 18:33N 33°44' W 118°16'0 0.0
2016-Jul-15 17:33N 33°44' W 118°16'0 0.0
2016-Jul-15 16:34N 33°44' W 118°16'0 0.0
2016-Jul-15 15:31N 33°44' W 118°16'0 0.0
2016-Jul-15 14:33N 33°44' W 118°16'0 0.0
2016-Jul-15 13:24N 33°44' W 118°16'0 0.0
2016-Jul-15 12:33N 33°44' W 118°16'0 0.0
2016-Jul-15 11:33N 33°44' W 118°16'0 0.0
2016-Jul-15 10:34N 33°44' W 118°16'0 0.0
2016-Jul-15 09:30N 33°44' W 118°16'0 0.0
2016-Jul-15 08:27N 33°44' W 118°16'0 0.0
2016-Jul-15 07:07N 33°44' W 118°16'0 0.0
2016-Jul-15 06:16N 33°44' W 118°16'0 0.0
2016-Jul-15 05:33N 33°44' W 118°16'0 0.0
2016-Jul-15 04:34N 33°44' W 118°16'0 0.0
2016-Jul-15 03:33N 33°44' W 118°16'0 0.0
2016-Jul-15 02:33N 33°44' W 118°16'0 0.0
2016-Jul-15 01:33N 33°44' W 118°16'0 0.0
2016-Jul-15 00:34N 33°44' W 118°16'0 0.0
2016-Jul-14 23:34N 33°44' W 118°16'0 0.0
2016-Jul-14 22:33N 33°44' W 118°16'0 0.0
2016-Jul-14 21:34N 33°44' W 118°16'0 0.0
2016-Jul-14 20:34N 33°44' W 118°16'0 0.0
2016-Jul-14 19:32N 33°44' W 118°16'0 0.0
2016-Jul-14 18:33N 33°44' W 118°16'0 0.0
2016-Jul-14 16:31N 33°44' W 118°16'0 0.0
2016-Jul-14 15:33N 33°44' W 118°16'0 0.0
2016-Jul-14 13:30N 33°44' W 118°16'0 0.0
2016-Jul-14 12:29N 33°44' W 118°16'0 0.0
2016-Jul-14 07:13N 33°44' W 118°16'0 0.0
2016-Jul-14 06:03N 33°44' W 118°16'0 0.0
2016-Jul-14 03:26N 33°44' W 118°16'0 0.0
2016-Jul-14 02:24N 33°44' W 118°16'0 0.0
2016-Jul-14 01:33N 33°44' W 118°16'0 0.0
2016-Jul-14 00:33N 33°44' W 118°16'0 0.0
2016-Jul-13 23:33N 33°44' W 118°16'0 0.0
2016-Jul-13 20:22N 33°44' W 118°16'0 0.0
2016-Jul-13 19:29N 33°44' W 118°16'0 0.0
2016-Jul-13 10:11N 33°44' W 118°16'0 0.0
2016-Jul-12 03:30N 33°44' W 118°16'0 0.0
2016-Jul-12 01:33N 33°44' W 118°16'0 0.0
2016-Jul-12 00:33N 33°44' W 118°16'0 0.0
2016-Jul-11 23:33N 33°44' W 118°16'0 0.0
2016-Jul-11 22:32N 33°44' W 118°16'0 0.0
2016-Jul-11 21:15N 33°44' W 118°16'0 0.0
2016-Jul-10 16:18N 33°44' W 118°16'0 0.0
2016-Jul-10 15:33N 33°44' W 118°16'0 0.0
2016-Jul-10 14:33N 33°44' W 118°16'0 0.0
2016-Jul-10 13:33N 33°44' W 118°16'0 0.0
2016-Jul-10 12:33N 33°44' W 118°16'0 0.0
2016-Jul-10 11:33N 33°44' W 118°16'0 0.0
2016-Jul-10 10:33N 33°44' W 118°16'0 0.0
2016-Jul-10 09:32N 33°44' W 118°16'0 0.0
2016-Jul-10 08:23N 33°44' W 118°16'0 0.0
2016-Jul-10 07:32N 33°44' W 118°16'0 0.0
2016-Jul-10 06:33N 33°44' W 118°16'0 0.0
2016-Jul-10 05:33N 33°44' W 118°16'0 0.0
2016-Jul-10 04:33N 33°44' W 118°16'0 0.0
2016-Jul-10 03:33N 33°44' W 118°16'0 0.0
2016-Jul-10 02:33N 33°44' W 118°16'0 0.0
2016-Jul-10 01:32N 33°44' W 118°16'0 0.0
2016-Jul-10 00:25N 33°44' W 118°16'0 0.0
2016-Jul-09 23:33N 33°44' W 118°16'0 0.0
2016-Jul-09 22:33N 33°44' W 118°16'0 0.0
2016-Jul-09 20:18N 33°44' W 118°16'0 0.0
2016-Jul-09 19:28N 33°44' W 118°16'0 0.0
2016-Jul-09 07:25N 33°44' W 118°16'0 0.0
2016-Jul-09 04:33N 33°44' W 118°16'0 0.0
2016-Jul-09 03:30N 33°44' W 118°16'0 0.0
2016-Jul-09 02:25N 33°44' W 118°16'0 0.0
2016-Jul-09 01:31N 33°44' W 118°16'0 0.0
2016-Jul-08 23:26N 33°44' W 118°16'0 0.0
2016-Jul-08 22:29N 33°44' W 118°16'0 0.0
2016-Jul-08 21:33N 33°44' W 118°16'0 0.0
2016-Jul-08 15:12N 33°44' W 118°16'  

Dump ship's entire track history